Time;durP1;ratioP1;P1;durP2;ratioP2;P2;SDS_P1;SDS_P2;PMS_P1;PMS_P2;Temp;Humidity;BMP_temperature;BMP_pressure;BME280_temperature;BME280_humidity;BME280_pressure;Samples;Min_cycle;Max_cycle;Signal;HPM_P1;HPM_P2
2021/01/25 00:01:09;;;;;;;10.15;5.43;;;;;;;-144.15;100.00;63241.31;1035110;28;20034;-63
2021/01/25 00:02:38;;;;;;;9.07;5.05;;;;;;;-144.15;100.00;63241.31;1034896;28;20115;-64
2021/01/25 00:04:07;;;;;;;8.70;4.85;;;;;;;-144.15;100.00;63241.31;1035152;28;20034;-64
2021/01/25 00:05:37;;;;;;;9.50;5.20;;;;;;;-144.15;100.00;63241.31;1039149;28;20510;-63
2021/01/25 00:07:06;;;;;;;8.27;5.57;;;;;;;-144.15;100.00;63241.31;1035197;28;20511;-63
2021/01/25 00:08:35;;;;;;;9.20;5.07;;;;;;;-144.15;100.00;63241.31;1034863;28;20033;-63
2021/01/25 00:10:04;;;;;;;14.27;5.30;;;;;;;-144.15;100.00;63241.31;1034852;28;20044;-64
2021/01/25 00:11:33;;;;;;;8.73;4.93;;;;;;;-144.15;100.00;63241.31;1039003;28;20037;-61
2021/01/25 00:13:02;;;;;;;9.52;4.78;;;;;;;-144.15;100.00;63241.31;1030735;28;20740;-63
2021/01/25 00:14:31;;;;;;;12.63;5.72;;;;;;;-144.15;100.00;63241.31;1039006;28;20033;-63
2021/01/25 00:16:00;;;;;;;8.98;4.90;;;;;;;-144.15;100.00;63241.31;1034317;28;20415;-62
2021/01/25 00:17:29;;;;;;;9.13;4.85;;;;;;;-144.15;100.00;63241.31;1035335;28;20061;-64
2021/01/25 00:18:58;;;;;;;10.15;5.20;;;;;;;-144.15;100.00;63241.31;1035171;28;20407;-64
2021/01/25 00:20:27;;;;;;;8.63;4.88;;;;;;;-144.15;100.00;63241.31;1035154;28;20034;-63
2021/01/25 00:21:56;;;;;;;8.20;4.50;;;;;;;-144.15;100.00;63241.31;1035151;28;20083;-62
2021/01/25 00:23:25;;;;;;;9.25;5.30;;;;;;;-144.15;100.00;63241.31;1035208;28;20553;-62
2021/01/25 00:24:54;;;;;;;8.02;4.60;;;;;;;-144.15;100.00;63241.31;1035260;28;20040;-63
2021/01/25 00:26:23;;;;;;;9.50;5.07;;;;;;;-144.15;100.00;63241.31;1034847;28;20041;-63
2021/01/25 00:27:52;;;;;;;11.75;4.82;;;;;;;-144.15;100.00;63241.31;1035235;28;20141;-63
2021/01/25 00:29:21;;;;;;;11.57;5.03;;;;;;;-144.15;100.00;63241.31;1034798;28;20370;-63
2021/01/25 00:30:50;;;;;;;10.13;4.82;;;;;;;-144.15;100.00;63241.31;1030745;28;20039;-63
2021/01/25 00:32:18;;;;;;;8.30;5.10;;;;;;;-144.15;100.00;63241.31;1030668;28;20109;-62
2021/01/25 00:33:47;;;;;;;8.77;4.95;;;;;;;-144.15;100.00;63241.31;1035210;28;20057;-63
2021/01/25 00:35:16;;;;;;;10.07;5.63;;;;;;;-144.15;100.00;63241.31;1030759;28;20496;-63
2021/01/25 00:36:45;;;;;;;12.77;5.85;;;;;;;-144.15;100.00;63241.31;1035195;28;20042;-63
2021/01/25 00:38:14;;;;;;;12.27;5.60;;;;;;;-144.15;100.00;63241.31;1035566;28;20022;-63
2021/01/25 00:39:43;;;;;;;10.80;5.53;;;;;;;-144.15;100.00;63241.31;1031091;28;20038;-65
2021/01/25 00:41:12;;;;;;;11.75;5.43;;;;;;;-144.15;100.00;63241.31;1034898;28;20543;-63
2021/01/25 00:42:41;;;;;;;13.95;5.93;;;;;;;-144.15;100.00;63241.31;1034670;28;20032;-64
2021/01/25 00:44:11;;;;;;;12.93;5.85;;;;;;;-144.15;100.00;63241.31;1026617;28;20035;-63
2021/01/25 00:45:40;;;;;;;12.25;5.80;;;;;;;-144.15;100.00;63241.31;1030597;28;20165;-63
2021/01/25 00:47:08;;;;;;;11.40;5.35;;;;;;;-144.15;100.00;63241.31;1034779;28;20511;-63
2021/01/25 00:48:37;;;;;;;11.45;5.78;;;;;;;-144.15;100.00;63241.31;1034724;28;20048;-61
2021/01/25 00:50:07;;;;;;;11.60;6.22;;;;;;;-144.15;100.00;63241.31;1037062;28;20030;-64
2021/01/25 00:51:36;;;;;;;14.10;5.90;;;;;;;-144.15;100.00;63241.31;1026897;28;20166;-65
2021/01/25 00:53:04;;;;;;;10.27;5.60;;;;;;;-144.15;100.00;63241.31;1027356;28;20287;-63
2021/01/25 00:54:33;;;;;;;8.90;4.78;;;;;;;-144.15;100.00;63241.31;1035414;28;20119;-64
2021/01/25 00:56:03;;;;;;;9.50;4.57;;;;;;;-144.15;100.00;63241.31;1034883;28;20382;-65
2021/01/25 00:57:32;;;;;;;12.63;5.28;;;;;;;-144.15;100.00;63241.31;1031052;28;20443;-64
2021/01/25 00:59:01;;;;;;;8.82;5.28;;;;;;;-144.15;100.00;63241.31;1031299;28;20041;-64
2021/01/25 01:00:30;;;;;;;8.75;5.15;;;;;;;-144.15;100.00;63241.31;1039012;28;20052;-64
2021/01/25 01:01:59;;;;;;;15.45;5.28;;;;;;;-144.15;100.00;63241.31;1039044;28;20112;-63
2021/01/25 01:03:28;;;;;;;10.02;5.25;;;;;;;-144.15;100.00;63241.31;1038880;28;20029;-62
2021/01/25 01:04:56;;;;;;;11.27;5.28;;;;;;;-144.15;100.00;63241.31;1035149;28;20046;-64
2021/01/25 01:06:25;;;;;;;9.77;4.95;;;;;;;-144.15;100.00;63241.31;1038674;28;20044;-63
2021/01/25 01:07:54;;;;;;;10.50;5.75;;;;;;;-144.15;100.00;63241.31;1034609;28;20034;-64
2021/01/25 01:09:23;;;;;;;10.93;5.40;;;;;;;-144.15;100.00;63241.31;1022592;29;20059;-64
2021/01/25 01:10:52;;;;;;;11.30;5.18;;;;;;;-144.15;100.00;63241.31;1035038;28;20030;-65
2021/01/25 01:12:21;;;;;;;8.35;4.97;;;;;;;-144.15;100.00;63241.31;1035320;28;20403;-64
2021/01/25 01:13:50;;;;;;;10.40;6.40;;;;;;;-144.15;100.00;63241.31;1035305;28;20026;-62
2021/01/25 01:15:19;;;;;;;9.70;5.60;;;;;;;-144.15;100.00;63241.31;1034599;28;20045;-64
2021/01/25 01:16:48;;;;;;;11.80;5.35;;;;;;;-144.15;100.00;63241.31;1035350;28;20030;-64
2021/01/25 01:18:17;;;;;;;11.65;5.50;;;;;;;-144.15;100.00;63241.31;1035320;28;20036;-65
2021/01/25 01:19:46;;;;;;;9.63;4.72;;;;;;;-144.15;100.00;63241.31;1035070;28;20503;-63
2021/01/25 01:21:15;;;;;;;7.45;4.72;;;;;;;-144.15;100.00;63241.31;1035564;28;20061;-64
2021/01/25 01:22:44;;;;;;;8.10;4.68;;;;;;;-144.15;100.00;63241.31;1035074;28;20083;-64
2021/01/25 01:24:13;;;;;;;10.77;5.15;;;;;;;-144.15;100.00;63241.31;1031044;28;20050;-64
2021/01/25 01:25:42;;;;;;;8.80;5.05;;;;;;;-144.15;100.00;63241.31;1037578;28;20033;-63
2021/01/25 01:27:11;;;;;;;12.30;6.28;;;;;;;-144.15;100.00;63241.31;1038805;28;20231;-64
2021/01/25 01:28:40;;;;;;;12.35;5.18;;;;;;;-144.15;100.00;63241.31;1033935;28;20034;-65
2021/01/25 01:30:09;;;;;;;9.57;5.38;;;;;;;-144.15;100.00;63241.31;1030854;28;20116;-65
2021/01/25 01:31:38;;;;;;;11.40;5.40;;;;;;;-144.15;100.00;63241.31;1033015;28;20491;-64
2021/01/25 01:33:07;;;;;;;8.60;5.30;;;;;;;-144.15;100.00;63241.31;1035075;28;20108;-63
2021/01/25 01:34:36;;;;;;;10.43;5.30;;;;;;;-144.15;100.00;63241.31;1034355;28;20069;-63
2021/01/25 01:36:05;;;;;;;11.18;5.45;;;;;;;-144.15;100.00;63241.31;1033618;28;20030;-63
2021/01/25 01:37:34;;;;;;;8.68;4.75;;;;;;;-144.15;100.00;63241.31;1035089;28;20108;-65
2021/01/25 01:39:03;;;;;;;11.05;5.68;;;;;;;-144.15;100.00;63241.31;1034800;28;20050;-64
2021/01/25 01:40:32;;;;;;;11.35;5.40;;;;;;;-144.15;100.00;63241.31;1032736;28;20034;-65
2021/01/25 01:42:01;;;;;;;8.02;4.78;;;;;;;-144.15;100.00;63241.31;1033533;28;20125;-64
2021/01/25 01:43:30;;;;;;;7.15;4.75;;;;;;;-144.15;100.00;63241.31;1034704;28;20581;-62
2021/01/25 01:45:01;;;;;;;7.20;5.05;;;;;;;-144.15;100.00;63241.31;1035232;28;20529;-66
2021/01/25 01:46:30;;;;;;;8.98;5.43;;;;;;;-144.15;100.00;63241.31;1030756;28;20105;-62
2021/01/25 01:47:59;;;;;;;9.48;4.57;;;;;;;-144.15;100.00;63241.31;1034963;28;20030;-64
2021/01/25 01:49:28;;;;;;;11.57;5.18;;;;;;;-144.15;100.00;63241.31;1035045;28;20691;-63
2021/01/25 01:50:57;;;;;;;7.82;4.78;;;;;;;-144.15;100.00;63241.31;1034729;28;20503;-64
2021/01/25 01:52:26;;;;;;;8.55;5.18;;;;;;;-144.15;100.00;63241.31;1034341;28;20033;-63
2021/01/25 01:53:55;;;;;;;16.20;6.05;;;;;;;-144.15;100.00;63241.31;1035040;28;20517;-64
2021/01/25 01:55:24;;;;;;;8.82;4.90;;;;;;;-144.15;100.00;63241.31;1026677;28;20058;-63
2021/01/25 01:56:53;;;;;;;8.40;5.18;;;;;;;-144.15;100.00;63241.31;1030571;28;20114;-64
2021/01/25 01:58:22;;;;;;;8.85;5.53;;;;;;;-144.15;100.00;63241.31;1039199;28;20083;-64
2021/01/25 01:59:51;;;;;;;9.77;4.70;;;;;;;-144.15;100.00;63241.31;1030619;28;20033;-64
2021/01/25 02:01:20;;;;;;;9.18;5.25;;;;;;;-144.15;100.00;63241.31;1030405;28;20038;-64
2021/01/25 02:02:49;;;;;;;11.75;5.13;;;;;;;-144.15;100.00;63241.31;1034713;28;20041;-64
2021/01/25 02:04:18;;;;;;;7.47;4.70;;;;;;;-144.15;100.00;63241.31;1034704;28;20546;-65
2021/01/25 02:05:47;;;;;;;10.63;5.05;;;;;;;-144.15;100.00;63241.31;1034154;28;20029;-63
2021/01/25 02:07:16;;;;;;;9.55;5.00;;;;;;;-144.15;100.00;63241.31;1026779;28;20686;-64
2021/01/25 02:08:46;;;;;;;6.90;4.80;;;;;;;-144.15;100.00;63241.31;1029936;28;20057;-64
2021/01/25 02:10:15;;;;;;;8.73;4.45;;;;;;;-144.15;100.00;63241.31;1026061;28;20108;-64
2021/01/25 02:11:45;;;;;;;6.78;4.60;;;;;;;-144.15;100.00;63241.31;1030424;28;20031;-63
2021/01/25 02:13:15;;;;;;;7.53;4.68;;;;;;;-144.15;100.00;63241.31;1030640;28;20030;-64
2021/01/25 02:14:44;;;;;;;7.63;4.85;;;;;;;-144.15;100.00;63241.31;1033833;28;20026;-63
2021/01/25 02:16:14;;;;;;;8.98;5.03;;;;;;;-144.15;100.00;63241.31;1034366;28;20108;-64
2021/01/25 02:17:43;;;;;;;7.70;4.32;;;;;;;-144.15;100.00;63241.31;1034339;28;20131;-61
2021/01/25 02:19:17;;;;;;;9.10;4.78;;;;;;;-144.15;100.00;63241.31;1030837;28;20030;-64
2021/01/25 02:20:58;;;;;;;8.02;4.82;;;;;;;-144.15;100.00;63241.31;1031271;28;20037;-64
2021/01/25 02:22:36;;;;;;;7.50;4.05;;;;;;;-144.15;100.00;63241.31;1036076;28;20072;-62
2021/01/25 02:24:27;;;;;;;8.57;4.18;;;;;;;-144.15;100.00;63241.31;1030407;28;20038;-64
2021/01/25 02:26:15;;;;;;;7.35;4.63;;;;;;;-144.15;100.00;63241.31;1030018;28;20479;-63
2021/01/25 02:27:59;;;;;;;7.88;4.38;;;;;;;-144.15;100.00;63241.31;1033862;28;20038;-63
2021/01/25 02:29:29;;;;;;;8.30;4.40;;;;;;;-144.15;100.00;63241.31;1031470;28;20030;-64
2021/01/25 02:30:58;;;;;;;7.85;4.70;;;;;;;-144.15;100.00;63241.31;1031500;28;20118;-62
2021/01/25 02:32:29;;;;;;;9.25;4.80;;;;;;;-144.15;100.00;63241.31;1035349;28;20033;-63
2021/01/25 02:33:58;;;;;;;7.50;4.30;;;;;;;-144.15;100.00;63241.31;1031415;28;20065;-66
2021/01/25 02:35:27;;;;;;;9.57;4.90;;;;;;;-144.15;100.00;63241.31;1039498;28;20119;-64
2021/01/25 02:36:57;;;;;;;7.57;4.63;;;;;;;-144.15;100.00;63241.31;1031135;28;20031;-64
2021/01/25 02:38:29;;;;;;;6.90;4.68;;;;;;;-144.15;100.00;63241.31;1033591;28;20025;-64
2021/01/25 02:39:59;;;;;;;;;;;;;;;-144.15;100.00;63241.31;1031470;28;20042;-64
2021/01/25 02:41:28;;;;;;;7.28;4.30;;;;;;;-144.15;100.00;63241.31;1035559;28;19920;-64
2021/01/25 02:42:57;;;;;;;5.78;3.97;;;;;;;-144.15;100.00;63241.31;1035313;28;20096;-64
2021/01/25 02:44:27;;;;;;;6.90;4.15;;;;;;;-144.15;100.00;63241.31;1031371;28;20645;-64
2021/01/25 02:45:56;;;;;;;7.28;4.93;;;;;;;-144.15;100.00;63241.31;1034607;28;20550;-63
2021/01/25 02:47:25;;;;;;;9.50;5.07;;;;;;;-144.15;100.00;63241.31;1031001;28;20041;-64
2021/01/25 02:48:54;;;;;;;9.07;4.43;;;;;;;-144.15;100.00;63241.31;1030764;28;20177;-63
2021/01/25 02:50:23;;;;;;;7.93;4.78;;;;;;;-144.15;100.00;63241.31;1033342;28;20033;-64
2021/01/25 02:51:52;;;;;;;7.43;4.13;;;;;;;-144.15;100.00;63241.31;1035469;28;20072;-63
2021/01/25 02:53:21;;;;;;;11.48;4.82;;;;;;;-144.15;100.00;63241.31;1035719;28;20038;-65
2021/01/25 02:54:50;;;;;;;6.88;3.95;;;;;;;-144.15;100.00;63241.31;1035577;28;20065;-63
2021/01/25 02:56:19;;;;;;;8.18;4.60;;;;;;;-144.15;100.00;63241.31;1039495;28;20037;-63
2021/01/25 02:57:48;;;;;;;6.72;4.05;;;;;;;-144.15;100.00;63241.31;1035358;28;20034;-64
2021/01/25 02:59:17;;;;;;;13.50;4.63;;;;;;;-144.15;100.00;63241.31;1035269;28;20172;-65
2021/01/25 03:00:47;;;;;;;6.50;4.03;;;;;;;-144.15;100.00;63241.31;1031171;28;20045;-63
2021/01/25 03:02:16;;;;;;;7.13;4.10;;;;;;;-144.15;100.00;63241.31;1039206;28;20123;-64
2021/01/25 03:03:45;;;;;;;9.27;5.50;;;;;;;-144.15;100.00;63241.31;1035250;28;20041;-64
2021/01/25 03:05:14;;;;;;;8.50;4.45;;;;;;;-144.15;100.00;63241.31;1035417;28;20085;-64
2021/01/25 03:06:43;;;;;;;8.52;4.50;;;;;;;-144.15;100.00;63241.31;1035313;28;20108;-64
2021/01/25 03:08:12;;;;;;;11.35;4.85;;;;;;;-144.15;100.00;63241.31;1039046;28;20095;-63
2021/01/25 03:09:41;;;;;;;6.68;4.30;;;;;;;-144.15;100.00;63241.31;1034641;28;20553;-64
2021/01/25 03:11:10;;;;;;;7.20;4.45;;;;;;;-144.15;100.00;63241.31;1039690;28;20041;-64
2021/01/25 03:12:39;;;;;;;7.00;3.80;;;;;;;-144.15;100.00;63241.31;1031322;28;20411;-64
2021/01/25 03:14:08;;;;;;;7.57;4.78;;;;;;;-144.15;100.00;63241.31;1019222;29;20039;-64
2021/01/25 03:15:43;;;;;;;7.40;4.00;;;;;;;-144.15;100.00;63241.31;1031557;28;20038;-64
2021/01/25 03:17:13;;;;;;;7.68;4.75;;;;;;;-144.15;100.00;63241.31;1028865;28;20430;-64
2021/01/25 03:18:42;;;;;;;6.50;3.97;;;;;;;-144.15;100.00;63241.31;1030970;28;20030;-63
2021/01/25 03:20:11;;;;;;;8.10;4.18;;;;;;;-144.15;100.00;63241.31;1035262;28;20531;-64
2021/01/25 03:21:46;;;;;;;7.40;4.25;;;;;;;-144.15;100.00;63241.31;1039391;28;20033;-62
2021/01/25 03:23:15;;;;;;;10.20;4.18;;;;;;;-144.15;100.00;63241.31;1038765;28;20061;-64
2021/01/25 03:24:44;;;;;;;8.20;4.72;;;;;;;-144.15;100.00;63241.31;1035009;28;20132;-65
2021/01/25 03:26:14;;;;;;;10.02;4.80;;;;;;;-144.15;100.00;63241.31;1038026;28;20033;-65
2021/01/25 03:27:43;;;;;;;9.43;4.50;;;;;;;-144.15;100.00;63241.31;1039568;28;20037;-65
2021/01/25 03:29:12;;;;;;;7.55;4.55;;;;;;;-144.15;100.00;63241.31;1035021;28;20059;-64
2021/01/25 03:30:41;;;;;;;5.68;3.80;;;;;;;-144.15;100.00;63241.31;1039180;28;20515;-63
2021/01/25 03:32:10;;;;;;;6.22;3.70;;;;;;;-144.15;100.00;63241.31;1035277;28;20064;-63
2021/01/25 03:33:39;;;;;;;6.93;4.28;;;;;;;-144.15;100.00;63241.31;1035248;28;20040;-64
2021/01/25 03:35:11;;;;;;;8.15;4.18;;;;;;;-144.15;100.00;63241.31;1035016;28;20485;-64
2021/01/25 03:36:40;;;;;;;7.63;4.05;;;;;;;-144.15;100.00;63241.31;1035949;28;20128;-63
2021/01/25 03:38:09;;;;;;;11.25;4.30;;;;;;;-144.15;100.00;63241.31;1035052;28;20132;-65
2021/01/25 03:39:38;;;;;;;5.93;4.22;;;;;;;-144.15;100.00;63241.31;1035259;28;20042;-64
2021/01/25 03:41:07;;;;;;;5.47;3.78;;;;;;;-144.15;100.00;63241.31;1030998;28;20027;-64
2021/01/25 03:42:36;;;;;;;5.45;3.70;;;;;;;-144.15;100.00;63241.31;1035277;28;20129;-64
2021/01/25 03:44:05;;;;;;;7.25;4.32;;;;;;;-144.15;100.00;63241.31;1037313;28;20021;-65
2021/01/25 03:45:34;;;;;;;5.15;4.13;;;;;;;-144.15;100.00;63241.31;1035580;28;20041;-64
2021/01/25 03:47:03;;;;;;;7.53;4.07;;;;;;;-144.15;100.00;63241.31;1037738;28;20431;-64
2021/01/25 03:48:32;;;;;;;7.93;3.97;;;;;;;-144.15;100.00;63241.31;1038249;28;20418;-64
2021/01/25 03:50:01;;;;;;;8.23;4.35;;;;;;;-144.15;100.00;63241.31;1034694;28;20030;-64
2021/01/25 03:51:29;;;;;;;7.53;4.10;;;;;;;-144.15;100.00;63241.31;1034927;28;20033;-65
2021/01/25 03:53:02;;;;;;;6.18;4.05;;;;;;;-144.15;100.00;63241.31;1033387;28;20062;-64
2021/01/25 03:54:31;;;;;;;6.03;4.00;;;;;;;-144.15;100.00;63241.31;1039013;28;20037;-64
2021/01/25 03:56:00;;;;;;;6.72;3.88;;;;;;;-144.15;100.00;63241.31;1030161;28;20782;-63
2021/01/25 03:57:29;;;;;;;6.70;3.60;;;;;;;-144.15;100.00;63241.31;1039010;28;20462;-62
2021/01/25 03:58:58;;;;;;;5.28;3.45;;;;;;;-144.15;100.00;63241.31;1035505;28;20034;-64
2021/01/25 04:00:27;;;;;;;6.15;4.28;;;;;;;-144.15;100.00;63241.31;1035305;28;20132;-63
2021/01/25 04:01:56;;;;;;;8.98;4.25;;;;;;;-144.15;100.00;63241.31;1035190;28;20087;-63
2021/01/25 04:03:25;;;;;;;10.77;5.85;;;;;;;-144.15;100.00;63241.31;1035229;28;20038;-65
2021/01/25 04:04:54;;;;;;;8.45;3.53;;;;;;;-144.15;100.00;63241.31;1030552;28;20064;-63
2021/01/25 04:06:23;;;;;;;8.38;3.55;;;;;;;-144.15;100.00;63241.31;1038742;28;20577;-63
2021/01/25 04:07:52;;;;;;;6.53;4.00;;;;;;;-144.15;100.00;63241.31;1030781;28;20034;-65
2021/01/25 04:09:21;;;;;;;6.03;3.70;;;;;;;-144.15;100.00;63241.31;1035079;28;20038;-65
2021/01/25 04:10:53;;;;;;;7.57;3.40;;;;;;;-144.15;100.00;63241.31;1030732;28;20034;-65
2021/01/25 04:12:22;;;;;;;6.85;4.22;;;;;;;-144.15;100.00;63241.31;1034792;28;20599;-64
2021/01/25 04:13:51;;;;;;;7.13;3.53;;;;;;;-144.15;100.00;63241.31;1034816;28;20034;-65
2021/01/25 04:15:20;;;;;;;6.55;3.70;;;;;;;-144.15;100.00;63241.31;1034874;28;20034;-65
2021/01/25 04:16:49;;;;;;;9.57;4.78;;;;;;;-144.15;100.00;63241.31;1035658;28;20033;-63
2021/01/25 04:18:18;;;;;;;8.07;4.05;;;;;;;-144.15;100.00;63241.31;1035306;28;20034;-63
2021/01/25 04:19:47;;;;;;;6.88;3.95;;;;;;;-144.15;100.00;63241.31;1035986;28;20036;-63
2021/01/25 04:21:16;;;;;;;6.70;3.58;;;;;;;-144.15;100.00;63241.31;1035987;28;20034;-64
2021/01/25 04:22:45;;;;;;;5.75;3.53;;;;;;;-144.15;100.00;63241.31;1034953;28;20523;-62
2021/01/25 04:24:13;;;;;;;5.47;3.60;;;;;;;-144.15;100.00;63241.31;1031012;28;20077;-64
2021/01/25 04:25:43;;;;;;;6.22;3.90;;;;;;;-144.15;100.00;63241.31;1038735;28;20033;-62
2021/01/25 04:27:13;;;;;;;4.82;3.58;;;;;;;-144.15;100.00;63241.31;1034468;28;20037;-64
2021/01/25 04:28:45;;;;;;;4.90;3.40;;;;;;;-144.15;100.00;63241.31;1034622;28;20434;-63
2021/01/25 04:30:14;;;;;;;5.88;3.65;;;;;;;-144.15;100.00;63241.31;1034383;28;20030;-63
2021/01/25 04:31:43;;;;;;;5.25;3.50;;;;;;;-144.15;100.00;63241.31;1035807;28;20025;-65
2021/01/25 04:33:12;;;;;;;4.50;3.22;;;;;;;-144.15;100.00;63241.31;1035053;28;20045;-65
2021/01/25 04:34:41;;;;;;;8.40;3.70;;;;;;;-144.15;100.00;63241.31;1039218;28;20029;-65
2021/01/25 04:36:11;;;;;;;9.10;3.90;;;;;;;-144.15;100.00;63241.31;1030498;28;20088;-65
2021/01/25 04:37:40;;;;;;;5.93;3.50;;;;;;;-144.15;100.00;63241.31;1035682;28;20034;-64
2021/01/25 04:39:09;;;;;;;7.07;3.95;;;;;;;-144.15;100.00;63241.31;1034442;28;20066;-66
2021/01/25 04:40:37;;;;;;;6.43;3.90;;;;;;;-144.15;100.00;63241.31;1028729;28;20038;-65
2021/01/25 04:42:06;;;;;;;6.85;3.63;;;;;;;-144.15;100.00;63241.31;1030521;28;20035;-62
2021/01/25 04:43:36;;;;;;;7.30;3.90;;;;;;;-144.15;100.00;63241.31;1030676;28;20026;-63
2021/01/25 04:45:05;;;;;;;6.43;3.17;;;;;;;-144.15;100.00;63241.31;1026801;28;20128;-66
2021/01/25 04:46:34;;;;;;;6.45;3.58;;;;;;;-144.15;100.00;63241.31;1026898;28;20532;-65
2021/01/25 04:47:05;;;;;;;5.40;3.67;;;;;;;-144.15;100.00;63241.31;1030722;28;20061;-64
2021/01/25 04:47:37;;;;;;;5.40;3.83;;;;;;;-144.15;100.00;63241.31;1030993;28;20033;-64
2021/01/25 04:48:07;;;;;;;6.22;3.90;;;;;;;-144.15;100.00;63241.31;1022436;29;20131;-64
2021/01/25 04:48:38;;;;;;;6.70;3.90;;;;;;;-144.15;100.00;63241.31;1023139;28;20075;-63
2021/01/25 04:49:08;;;;;;;6.37;4.40;;;;;;;-144.15;100.00;63241.31;1022977;28;20019;-64
2021/01/25 04:49:38;;;;;;;11.33;4.50;;;;;;;-144.15;100.00;63241.31;1026278;28;20067;-62
2021/01/25 04:50:09;;;;;;;6.30;3.80;;;;;;;-144.15;100.00;63241.31;1023071;29;20484;-64
2021/01/25 04:50:40;;;;;;;6.93;4.10;;;;;;;-144.15;100.00;63241.31;1018903;29;20024;-64
2021/01/25 04:51:11;;;;;;;7.27;4.30;;;;;;;-144.15;100.00;63241.31;1022717;29;20031;-64
2021/01/25 04:51:41;;;;;;;12.68;6.20;;;;;;;-144.15;100.00;63241.31;1021233;28;20054;-65
2021/01/25 04:52:12;;;;;;;5.57;3.73;;;;;;;-144.15;100.00;63241.31;1022879;28;20046;-64
2021/01/25 04:52:45;;;;;;;6.90;4.47;;;;;;;-144.15;100.00;63241.31;1023554;28;20034;-64
2021/01/25 04:53:16;;;;;;;7.60;3.65;;;;;;;-144.15;100.00;63241.31;1026140;28;20034;-64
2021/01/25 04:53:46;;;;;;;6.47;4.17;;;;;;;-144.15;100.00;63241.31;1022817;29;20030;-63
2021/01/25 04:54:17;;;;;;;6.77;4.47;;;;;;;-144.15;100.00;63241.31;1023163;29;20787;-64
2021/01/25 04:54:47;;;;;;;6.77;4.47;;;;;;;-144.15;100.00;63241.31;1017985;29;20035;-64
2021/01/25 04:55:40;;;;;;;6.00;4.07;;;;;;;-144.15;100.00;63241.31;1022501;29;20071;-64
2021/01/25 04:56:11;;;;;;;7.00;4.35;;;;;;;-144.15;100.00;63241.31;1024678;28;20030;-65
2021/01/25 04:56:42;;;;;;;5.72;3.95;;;;;;;-144.15;100.00;63241.31;1024554;28;20045;-64
2021/01/25 04:57:15;;;;;;;6.47;4.20;;;;;;;-144.15;100.00;63241.31;1023178;28;20596;-63
2021/01/25 04:57:46;;;;;;;6.00;4.00;;;;;;;-144.15;100.00;63241.31;1023527;28;20023;-63
2021/01/25 04:58:18;;;;;;;9.20;4.10;;;;;;;-144.15;100.00;63241.31;1027653;28;20027;-64
2021/01/25 04:58:48;;;;;;;4.68;3.75;;;;;;;-144.15;100.00;63241.31;1030867;28;20022;-64
2021/01/25 04:59:19;;;;;;;9.50;4.57;;;;;;;-144.15;100.00;63241.31;1034706;28;20025;-64
2021/01/25 04:59:50;;;;;;;10.35;4.07;;;;;;;-144.15;100.00;63241.31;1035064;28;20036;-63
2021/01/25 05:00:21;;;;;;;6.93;4.10;;;;;;;-144.15;100.00;63241.31;1026396;28;20034;-64
2021/01/25 05:00:51;;;;;;;5.43;3.70;;;;;;;-144.15;100.00;63241.31;1027600;28;20113;-64
2021/01/25 05:01:22;;;;;;;9.30;3.97;;;;;;;-144.15;100.00;63241.31;1030897;28;20081;-64
2021/01/25 05:01:53;;;;;;;6.68;3.67;;;;;;;-144.15;100.00;63241.31;1029666;28;20400;-64
2021/01/25 05:02:23;;;;;;;5.80;3.73;;;;;;;-144.15;100.00;63241.31;1030936;28;20095;-64
2021/01/25 05:02:54;;;;;;;5.23;4.40;;;;;;;-144.15;100.00;63241.31;1030939;28;20050;-63
2021/01/25 05:03:24;;;;;;;11.37;3.50;;;;;;;-144.15;100.00;63241.31;1034026;28;20033;-63
2021/01/25 05:03:54;;;;;;;5.37;3.43;;;;;;;-144.15;100.00;63241.31;1027052;28;20058;-65
2021/01/25 05:05:23;;;;;;;4.83;3.40;;;;;;;-144.15;100.00;63241.31;1030819;28;20030;-64
2021/01/25 05:06:52;;;;;;;6.82;3.75;;;;;;;-144.15;100.00;63241.31;1034370;28;20424;-63
2021/01/25 05:08:21;;;;;;;5.32;3.05;;;;;;;-144.15;100.00;63241.31;1030830;28;20034;-64
2021/01/25 05:09:50;;;;;;;4.22;2.47;;;;;;;-144.15;100.00;63241.31;1038527;28;20029;-64
2021/01/25 05:11:19;;;;;;;3.97;2.47;;;;;;;-144.15;100.00;63241.31;1035979;28;20030;-65
2021/01/25 05:12:57;;;;;;;5.40;2.80;;;;;;;-144.15;100.00;63241.31;1034951;28;20034;-64
2021/01/25 05:14:35;;;;;;;5.78;3.30;;;;;;;-144.15;100.00;63241.31;1035088;28;20380;-64
2021/01/25 05:16:25;;;;;;;5.15;2.75;;;;;;;-144.15;100.00;63241.31;1034477;28;20048;-64
2021/01/25 05:17:54;;;;;;;3.85;2.40;;;;;;;-144.15;100.00;63241.31;1034261;28;20653;-64
2021/01/25 05:19:24;;;;;;;4.35;2.70;;;;;;;-144.15;100.00;63241.31;1034437;28;20025;-63
2021/01/25 05:20:57;;;;;;;3.67;2.45;;;;;;;-144.15;100.00;63241.31;1034503;28;20033;-64
2021/01/25 05:22:37;;;;;;;6.20;3.30;;;;;;;-144.15;100.00;63241.31;1033601;28;20029;-63
2021/01/25 05:24:13;;;;;;;5.22;2.65;;;;;;;-144.15;100.00;63241.31;1030610;28;20037;-62
2021/01/25 05:25:42;;;;;;;4.63;2.60;;;;;;;-144.15;100.00;63241.31;1029687;28;20037;-63
2021/01/25 05:27:19;;;;;;;5.22;2.58;;;;;;;-144.15;100.00;63241.31;1034564;28;20110;-64
2021/01/25 05:28:48;;;;;;;8.30;3.03;;;;;;;-144.15;100.00;63241.31;1037764;28;20394;-63
2021/01/25 05:30:27;;;;;;;5.10;2.95;;;;;;;-144.15;100.00;63241.31;1030742;28;20030;-63
2021/01/25 05:31:56;;;;;;;4.85;2.80;;;;;;;-144.15;100.00;63241.31;1028464;28;20034;-63
2021/01/25 05:33:25;;;;;;;5.03;2.92;;;;;;;-144.15;100.00;63241.31;1034936;28;20530;-63
2021/01/25 05:35:01;;;;;;;5.93;3.03;;;;;;;-144.15;100.00;63241.31;1034833;28;20033;-63
2021/01/25 05:36:26;;;;;;;6.65;3.75;;;;;;;-144.15;100.00;63241.31;1034678;28;20057;-64
2021/01/25 05:37:59;;;;;;;3.85;2.63;;;;;;;-144.15;100.00;63241.31;1034189;28;20033;-63
2021/01/25 05:39:30;;;;;;;6.38;4.13;;;;;;;-144.15;100.00;63241.31;1036986;28;21209;-64
2021/01/25 05:40:59;;;;;;;7.70;3.60;;;;;;;-144.15;100.00;63241.31;1035418;28;20501;-65
2021/01/25 05:42:33;;;;;;;6.57;3.80;;;;;;;-144.15;100.00;63241.31;1034619;28;20030;-64
2021/01/25 05:44:13;;;;;;;6.20;3.33;;;;;;;-144.15;100.00;63241.31;1034358;28;20058;-64
2021/01/25 05:45:42;;;;;;;6.80;3.88;;;;;;;-144.15;100.00;63241.31;1030551;28;20694;-65
2021/01/25 05:47:12;;;;;;;6.40;3.47;;;;;;;-144.15;100.00;63241.31;1034853;28;20038;-63
2021/01/25 05:48:57;;;;;;;7.75;4.25;;;;;;;-144.15;100.00;63241.31;1035634;28;20057;-61
2021/01/25 05:50:29;;;;;;;5.22;3.85;;;;;;;-144.15;100.00;63241.31;1034454;28;20527;-64
2021/01/25 05:52:14;;;;;;;5.75;3.28;;;;;;;-144.15;100.00;63241.31;1037280;28;20830;-64
2021/01/25 05:53:46;;;;;;;8.82;3.53;;;;;;;-144.15;100.00;63241.31;1038406;28;20037;-64
2021/01/25 05:55:15;;;;;;;4.88;3.25;;;;;;;-144.15;100.00;63241.31;1031399;28;20124;-64
2021/01/25 05:56:44;;;;;;;6.80;3.65;;;;;;;-144.15;100.00;63241.31;1037926;28;20058;-65
2021/01/25 05:58:13;;;;;;;7.47;3.53;;;;;;;-144.15;100.00;63241.31;1034672;28;20100;-63
2021/01/25 05:59:42;;;;;;;7.20;4.10;;;;;;;-144.15;100.00;63241.31;1032397;28;20491;-64
2021/01/25 06:01:11;;;;;;;6.50;4.30;;;;;;;-144.15;100.00;63241.31;1032537;28;20036;-63
2021/01/25 06:02:48;;;;;;;5.90;4.03;;;;;;;-144.15;100.00;63241.31;1034254;28;20022;-63
2021/01/25 06:04:18;;;;;;;10.93;6.10;;;;;;;-144.15;100.00;63241.31;1035758;28;20037;-64
2021/01/25 06:05:47;;;;;;;13.15;7.47;;;;;;;-144.15;100.00;63241.31;1030728;28;20418;-64
2021/01/25 06:07:18;;;;;;;11.15;6.35;;;;;;;-144.15;100.00;63241.31;1035147;28;20107;-64
2021/01/25 06:08:47;;;;;;;10.23;4.75;;;;;;;-144.15;100.00;63241.31;1031636;28;20041;-64
2021/01/25 06:10:31;;;;;;;8.93;4.93;;;;;;;-144.15;100.00;63241.31;1037650;28;20029;-63
2021/01/25 06:12:04;;;;;;;9.48;4.57;;;;;;;-144.15;100.00;63241.31;1027186;28;20030;-64
2021/01/25 06:14:03;;;;;;;7.07;4.35;;;;;;;-144.15;100.00;63241.31;1034711;28;20034;-63
2021/01/25 06:15:53;;;;;;;9.70;3.95;;;;;;;-144.15;100.00;63241.31;1034840;28;20042;-64
2021/01/25 06:17:25;;;;;;;9.27;4.93;;;;;;;-144.15;100.00;63241.31;1027504;28;20030;-63